createdAt,value
2022-08-25T00:01:31.333Z,98156.94
2022-08-25T00:04:04.075Z,98146.59
2022-08-25T00:06:34.796Z,98151.88
2022-08-25T00:09:04.891Z,98140.50
2022-08-25T00:11:39.210Z,98145.19
2022-08-25T00:14:16.507Z,98148.25
2022-08-25T00:16:49.299Z,98149.19
2022-08-25T00:19:23.847Z,98147.84
2022-08-25T00:21:54.465Z,98150.06
2022-08-25T00:24:26.818Z,98153.28
2022-08-25T00:26:59.642Z,98153.84
2022-08-25T00:29:30.965Z,98150.41
2022-08-25T00:32:04.038Z,98149.50
2022-08-25T00:34:41.303Z,98154.38
2022-08-25T00:37:12.122Z,98151.16
2022-08-25T00:39:43.642Z,98147.19
2022-08-25T00:42:16.347Z,98155.00
2022-08-25T00:44:47.038Z,98153.94
2022-08-25T00:47:20.040Z,98153.38
2022-08-25T00:49:56.980Z,98149.38
2022-08-25T00:52:32.558Z,98152.69
2022-08-25T00:55:08.421Z,98152.53
2022-08-25T00:57:45.569Z,98153.06
2022-08-25T01:00:22.108Z,98150.75
2022-08-25T01:02:56.889Z,98145.91
2022-08-25T01:05:28.573Z,98143.22
2022-08-25T01:08:03.149Z,98141.69
2022-08-25T01:10:39.175Z,98138.88
2022-08-25T01:13:16.429Z,98137.09
2022-08-25T01:15:48.074Z,98127.09
2022-08-25T01:18:20.688Z,98129.56
2022-08-25T01:20:56.455Z,98126.22
2022-08-25T01:23:29.177Z,98124.78
2022-08-25T01:26:07.806Z,98123.59
2022-08-25T01:28:59.173Z,98123.34
2022-08-25T01:31:31.011Z,98122.69
2022-08-25T01:34:02.008Z,98129.06
2022-08-25T01:36:36.739Z,98126.28
2022-08-25T01:39:08.448Z,98133.88
2022-08-25T01:41:51.931Z,98130.75
2022-08-25T01:44:22.142Z,98122.50
2022-08-25T01:46:52.194Z,98126.88
2022-08-25T01:49:22.284Z,98125.19
2022-08-25T01:52:03.272Z,98128.44
2022-08-25T01:54:33.257Z,98122.06
2022-08-25T01:57:03.269Z,98127.91
2022-08-25T01:59:33.365Z,98122.53
2022-08-25T02:02:04.841Z,98125.22
2022-08-25T02:04:36.083Z,98128.91
2022-08-25T02:07:12.216Z,98127.22
2022-08-25T02:09:44.331Z,98127.56
2022-08-25T02:12:14.489Z,98120.09
2022-08-25T02:14:44.737Z,98126.91
2022-08-25T02:17:14.917Z,98129.22
2022-08-25T02:19:44.957Z,98129.22
2022-08-25T02:22:17.593Z,98129.25
2022-08-25T02:24:48.139Z,98135.03
2022-08-25T02:27:18.586Z,98128.78
2022-08-25T02:29:48.645Z,98129.13
2022-08-25T02:32:18.630Z,98131.69
2022-08-25T02:34:48.767Z,98129.13
2022-08-25T02:37:21.462Z,98126.22
2022-08-25T02:39:51.677Z,98116.72
2022-08-25T02:42:22.017Z,98125.75
2022-08-25T02:44:52.170Z,98126.22
2022-08-25T02:47:25.693Z,98127.44
2022-08-25T02:49:57.491Z,98115.69
2022-08-25T02:52:30.293Z,98120.63
2022-08-25T02:55:00.633Z,98120.25
2022-08-25T02:57:30.755Z,98116.13
2022-08-25T03:00:01.008Z,98123.28
2022-08-25T03:02:31.030Z,98119.94
2022-08-25T03:05:01.333Z,98116.59
2022-08-25T03:07:35.352Z,98116.78
2022-08-25T03:10:11.661Z,98115.47
2022-08-25T03:12:42.717Z,98108.44
2022-08-25T03:15:16.790Z,98105.28
2022-08-25T03:17:49.412Z,98117.25
2022-08-25T03:20:22.123Z,98116.38
2022-08-25T03:22:55.161Z,98114.78
2022-08-25T03:25:38.063Z,98117.81
2022-08-25T03:28:11.089Z,98127.88
2022-08-25T03:30:41.308Z,98117.91
2022-08-25T03:33:11.465Z,98117.91
2022-08-25T03:35:43.619Z,98114.41
2022-08-25T03:38:17.177Z,98117.31
2022-08-25T03:40:47.340Z,98122.91
2022-08-25T03:43:17.530Z,98119.66
2022-08-25T03:45:48.955Z,98125.75
2022-08-25T03:48:20.222Z,98119.59
2022-08-25T03:50:54.801Z,98121.53
2022-08-25T03:53:27.473Z,98120.72
2022-08-25T03:55:57.773Z,98125.97
2022-08-25T03:58:27.869Z,98120.72
2022-08-25T04:01:00.547Z,98120.03
2022-08-25T04:03:30.741Z,98115.75
2022-08-25T04:06:05.579Z,98104.78
2022-08-25T04:08:38.717Z,98114.50
2022-08-25T04:11:11.865Z,98105.09
2022-08-25T04:13:41.971Z,98104.34
2022-08-25T04:16:15.740Z,98099.41
2022-08-25T04:18:47.701Z,98103.75
2022-08-25T04:21:20.262Z,98108.81
2022-08-25T04:23:54.678Z,98102.97
2022-08-25T04:26:28.708Z,98112.56
2022-08-25T04:29:00.982Z,98117.69
2022-08-25T04:31:32.463Z,98125.19
2022-08-25T04:34:14.358Z,98130.47
2022-08-25T04:36:55.590Z,98123.97
2022-08-25T04:39:28.248Z,98117.25
2022-08-25T04:42:00.467Z,98119.03
2022-08-25T04:44:31.910Z,98115.94
2022-08-25T04:47:03.403Z,98122.13
2022-08-25T04:49:33.494Z,98125.59
2022-08-25T04:52:03.571Z,98128.94
2022-08-25T04:54:37.115Z,98128.88
2022-08-25T04:57:08.118Z,98132.13
2022-08-25T04:59:38.153Z,98120.84
2022-08-25T05:02:09.200Z,98128.09
2022-08-25T05:04:39.952Z,98134.38
2022-08-25T05:07:10.171Z,98133.34
2022-08-25T05:09:42.896Z,98128.22
2022-08-25T05:12:13.814Z,98129.69
2022-08-25T05:14:43.785Z,98133.59
2022-08-25T05:17:14.175Z,98133.25
2022-08-25T05:19:44.414Z,98136.09
2022-08-25T05:22:14.432Z,98133.25
2022-08-25T05:24:47.272Z,98131.09
2022-08-25T05:27:17.269Z,98121.00
2022-08-25T05:29:47.248Z,98123.81
2022-08-25T05:32:17.297Z,98122.78
2022-08-25T05:34:48.279Z,98126.28
2022-08-25T05:37:18.259Z,98131.34
2022-08-25T05:39:51.207Z,98125.41
2022-08-25T05:42:22.534Z,98130.28
2022-08-25T05:44:53.020Z,98134.38
2022-08-25T05:47:23.170Z,98125.31
2022-08-25T05:49:53.167Z,98131.28
2022-08-25T05:52:23.160Z,98138.22
2022-08-25T05:54:56.059Z,98123.91
2022-08-25T05:57:26.063Z,98114.56
2022-08-25T05:59:56.060Z,98108.78
2022-08-25T06:02:38.501Z,98117.50
2022-08-25T06:05:09.272Z,98118.03
2022-08-25T06:07:39.722Z,98115.97
2022-08-25T06:10:14.296Z,98113.38
2022-08-25T06:12:47.575Z,98102.28
2022-08-25T06:15:21.838Z,98102.06
2022-08-25T06:17:56.670Z,98101.44
2022-08-25T06:20:32.612Z,98109.66
2022-08-25T06:23:03.126Z,98104.88
2022-08-25T06:25:35.686Z,98103.16
2022-08-25T06:28:06.403Z,98101.38
2022-08-25T06:30:36.522Z,98106.63
2022-08-25T06:33:07.156Z,98108.09
2022-08-25T06:35:37.311Z,98106.94
2022-08-25T06:38:07.489Z,98102.47
2022-08-25T06:40:40.873Z,98104.44
2022-08-25T06:43:10.900Z,98102.09
2022-08-25T06:45:40.912Z,98099.34
2022-08-25T06:48:10.893Z,98104.28
2022-08-25T06:50:42.197Z,98104.00
2022-08-25T06:53:12.657Z,98099.28
2022-08-25T06:55:45.301Z,98100.38
2022-08-25T06:58:15.517Z,98101.44
2022-08-25T07:00:45.666Z,98095.09
2022-08-25T07:03:17.182Z,98102.84
2022-08-25T07:05:55.258Z,98095.38
2022-08-25T07:08:26.699Z,98097.84
2022-08-25T07:10:59.674Z,98094.34
2022-08-25T07:13:31.807Z,98097.56
2022-08-25T07:16:02.570Z,98093.25
2022-08-25T07:18:33.062Z,98095.44
2022-08-25T07:21:03.086Z,98094.53
2022-08-25T07:23:34.026Z,98090.28
2022-08-25T07:29:11.944Z,98092.44
2022-08-25T07:31:42.761Z,98091.66
2022-08-25T07:34:34.621Z,98083.03
2022-08-25T07:37:06.377Z,98079.75
2022-08-25T07:39:37.391Z,98083.97
2022-08-25T07:42:11.980Z,98081.84
2022-08-25T07:44:43.419Z,98082.41
2022-08-25T07:47:15.721Z,98075.75
2022-08-25T07:49:45.910Z,98075.63
2022-08-25T07:52:16.238Z,98075.78
2022-08-25T07:54:46.214Z,98076.41
2022-08-25T07:57:19.908Z,98073.78
2022-08-25T07:59:50.103Z,98069.28
2022-08-25T08:02:21.871Z,98082.34
2022-08-25T08:04:56.693Z,98077.34
2022-08-25T08:07:43.225Z,98079.53
2022-08-25T08:10:54.102Z,98083.75
2022-08-25T08:13:16.483Z,98074.75
2022-08-25T08:15:49.501Z,98077.72
2022-08-25T08:18:20.088Z,98078.56
2022-08-25T08:20:51.971Z,98072.88
2022-08-25T08:23:27.708Z,98072.88
2022-08-25T08:25:57.860Z,98065.25
2022-08-25T08:28:31.285Z,98062.03
2022-08-25T08:31:01.973Z,98071.03
2022-08-25T08:33:32.180Z,98062.31
2022-08-25T08:36:14.011Z,98065.34
2022-08-25T08:38:46.288Z,98063.78
2022-08-25T08:42:17.428Z,98061.34
2022-08-25T08:45:18.418Z,98051.97
2022-08-25T08:48:04.434Z,98040.00
2022-08-25T08:50:50.266Z,98054.88
2022-08-25T08:53:34.173Z,98055.44
2022-08-25T08:56:12.480Z,98051.38
2022-08-25T08:58:49.820Z,98054.78
2022-08-25T09:01:33.672Z,98043.38
2022-08-25T09:04:16.609Z,98055.13
2022-08-25T09:06:53.197Z,98038.19
2022-08-25T09:09:31.087Z,98043.09
2022-08-25T09:12:18.216Z,98038.84
2022-08-25T09:15:13.053Z,98038.50
2022-08-25T09:18:11.990Z,98037.66
2022-08-25T09:21:01.488Z,98039.44
2022-08-25T09:23:46.065Z,98029.22
2022-08-25T09:26:32.656Z,98035.03
2022-08-25T09:29:16.301Z,98028.03
2022-08-25T09:31:48.540Z,98028.38
2022-08-25T09:34:26.122Z,98030.50
2022-08-25T09:36:56.147Z,98034.47
2022-08-25T09:39:27.302Z,98034.69
2022-08-25T09:42:02.634Z,98032.63
2022-08-25T09:44:36.434Z,98037.97
2022-08-25T09:47:10.399Z,98024.34
2022-08-25T09:49:47.443Z,98032.28
2022-08-25T09:52:35.043Z,98026.13
2022-08-25T09:55:34.389Z,98023.19
2022-08-25T09:58:22.369Z,98018.81
2022-08-25T10:01:07.325Z,98016.75
2022-08-25T10:03:37.504Z,98017.81
2022-08-25T10:06:18.422Z,98007.56
2022-08-25T10:09:01.130Z,98005.66
2022-08-25T10:11:52.702Z,98002.91
2022-08-25T10:14:38.914Z,97996.13
2022-08-25T10:17:24.834Z,98002.13
2022-08-25T10:20:17.235Z,97992.56
2022-08-25T10:22:53.935Z,97986.06
2022-08-25T10:25:32.520Z,97986.16
2022-08-25T10:28:17.254Z,97979.66
2022-08-25T10:31:05.842Z,97980.44
2022-08-25T10:33:55.454Z,97971.63
2022-08-25T10:36:39.295Z,97970.25
2022-08-25T10:39:34.412Z,97956.22
2022-08-25T10:42:25.789Z,97961.44
2022-08-25T10:45:31.849Z,97960.88
2022-08-25T10:48:27.486Z,97964.13
2022-08-25T10:51:06.110Z,97962.47
2022-08-25T10:53:53.159Z,97958.84
2022-08-25T10:56:37.091Z,97949.75
2022-08-25T10:59:46.708Z,97946.81
2022-08-25T11:03:02.822Z,97939.34
2022-08-25T11:05:41.733Z,97939.59
2022-08-25T11:08:20.093Z,97930.28
2022-08-25T11:10:56.868Z,97935.03
2022-08-25T11:13:45.608Z,97939.22
2022-08-25T11:16:23.054Z,97936.47
2022-08-25T11:19:06.625Z,97921.69
2022-08-25T11:21:52.131Z,97930.19
2022-08-25T11:24:43.552Z,97925.50
2022-08-25T11:27:21.657Z,97920.72
2022-08-25T11:30:08.985Z,97926.13
2022-08-25T11:32:41.891Z,97912.94
2022-08-25T11:35:16.993Z,97909.81
2022-08-25T11:38:16.975Z,97904.16
2022-08-25T11:41:02.104Z,97898.69
2022-08-25T11:44:02.204Z,97899.41
2022-08-25T11:46:52.888Z,97902.72
2022-08-25T11:49:53.350Z,97903.00
2022-08-25T11:52:46.924Z,97908.00
2022-08-25T11:55:23.007Z,97894.75
2022-08-25T11:58:15.484Z,97894.19
2022-08-25T12:00:47.489Z,97905.44
2022-08-25T12:03:56.009Z,97894.78
2022-08-25T12:06:33.504Z,97897.03
2022-08-25T12:09:21.563Z,97901.44
2022-08-25T12:11:58.104Z,97899.25
2022-08-25T12:14:49.414Z,97896.28
2022-08-25T12:17:29.661Z,97901.16
2022-08-25T12:20:03.144Z,97897.09
2022-08-25T12:23:01.406Z,97888.63
2022-08-25T12:25:45.201Z,97882.19
2022-08-25T12:28:45.811Z,97889.38
2022-08-25T12:31:35.832Z,97886.75
2022-08-25T12:34:29.204Z,97889.47
2022-08-25T12:37:08.357Z,97875.22
2022-08-25T12:39:45.828Z,97876.59
2022-08-25T12:42:31.429Z,97870.91
2022-08-25T12:45:45.768Z,97872.88
2022-08-25T12:48:57.824Z,97870.94
2022-08-25T12:51:30.937Z,97863.53
2022-08-25T12:54:22.512Z,97867.53
2022-08-25T12:57:01.788Z,97867.00
2022-08-25T12:59:40.603Z,97864.78
2022-08-25T13:02:51.747Z,97867.25
2022-08-25T13:06:10.806Z,97862.72
2022-08-25T13:09:23.144Z,97871.00
2022-08-25T13:12:10.145Z,97867.69
2022-08-25T13:14:44.348Z,97863.41
2022-08-25T13:17:27.548Z,97863.72
2022-08-25T13:20:16.465Z,97863.44
2022-08-25T13:22:53.971Z,97864.09
2022-08-25T13:25:33.465Z,97852.31
2022-08-25T13:28:11.137Z,97851.94
2022-08-25T13:30:41.478Z,97841.81
2022-08-25T13:33:23.812Z,97847.88
2022-08-25T13:36:12.512Z,97840.28
2022-08-25T13:38:42.790Z,97842.25
2022-08-25T13:41:28.928Z,97838.03
2022-08-25T13:44:03.198Z,97828.69
2022-08-25T13:46:35.500Z,97837.97
2022-08-25T13:49:09.516Z,97826.59
2022-08-25T13:51:42.130Z,97822.81
2022-08-25T13:54:31.352Z,97830.22
2022-08-25T13:57:14.527Z,97824.94
2022-08-25T13:59:55.904Z,97816.66
2022-08-25T14:02:49.856Z,97816.09
2022-08-25T14:05:36.468Z,97815.63
2022-08-25T14:08:23.582Z,97811.56
2022-08-25T14:11:12.648Z,97813.47
2022-08-25T14:13:46.954Z,97812.34
2022-08-25T14:16:26.303Z,97806.59
2022-08-25T14:19:01.980Z,97802.03
2022-08-25T14:21:36.909Z,97807.50
2022-08-25T14:24:12.149Z,97806.53
2022-08-25T14:26:54.052Z,97808.13
2022-08-25T14:29:25.333Z,97810.44
2022-08-25T14:31:59.546Z,97805.00
2022-08-25T14:34:36.663Z,97800.44
2022-08-25T14:37:15.626Z,97804.72
2022-08-25T14:39:47.024Z,97797.78
2022-08-25T14:42:17.922Z,97790.97
2022-08-25T14:44:47.936Z,97791.19
2022-08-25T14:47:22.023Z,97792.59
2022-08-25T14:49:54.214Z,97790.47
2022-08-25T14:52:32.110Z,97784.06
2022-08-25T14:55:02.648Z,97783.25
2022-08-25T14:57:32.806Z,97781.59
2022-08-25T15:00:02.924Z,97769.34
2022-08-25T15:02:41.432Z,97775.47
2022-08-25T15:05:15.080Z,97776.34
2022-08-25T15:07:57.614Z,97783.66
2022-08-25T15:10:28.858Z,97774.81
2022-08-25T15:13:00.174Z,97758.53
2022-08-25T15:15:30.836Z,97763.09
2022-08-25T15:18:03.909Z,97764.47
2022-08-25T15:20:35.091Z,97764.13
2022-08-25T15:23:08.796Z,97760.22
2022-08-25T15:25:40.045Z,97761.44
2022-08-25T15:28:10.674Z,97759.16
2022-08-25T15:30:44.883Z,97752.63
2022-08-25T15:33:18.780Z,97757.22
2022-08-25T15:35:49.963Z,97762.72
2022-08-25T15:38:20.712Z,97759.00
2022-08-25T15:40:50.797Z,97762.88
2022-08-25T15:43:21.998Z,97755.84
2022-08-25T15:45:53.188Z,97756.81
2022-08-25T15:48:25.943Z,97755.06
2022-08-25T15:51:00.928Z,97749.72
2022-08-25T15:53:32.390Z,97754.06
2022-08-25T15:56:05.688Z,97753.81
2022-08-25T15:58:37.738Z,97745.09
2022-08-25T16:01:25.586Z,97742.88
2022-08-25T16:03:58.474Z,97741.63
2022-08-25T16:06:29.480Z,97747.97
2022-08-25T16:08:59.541Z,97744.59
2022-08-25T16:11:34.843Z,97741.66
2022-08-25T16:14:05.517Z,97739.75
2022-08-25T16:16:37.020Z,97739.41
2022-08-25T16:19:09.630Z,97741.19
2022-08-25T16:21:47.126Z,97740.94
2022-08-25T16:24:19.036Z,97734.88
2022-08-25T16:26:50.361Z,97734.53
2022-08-25T16:29:22.894Z,97730.75
2022-08-25T16:31:53.370Z,97730.88
2022-08-25T16:34:30.772Z,97736.34
2022-08-25T16:37:01.884Z,97740.38
2022-08-25T16:39:31.957Z,97730.78
2022-08-25T16:42:02.274Z,97723.16
2022-08-25T16:44:32.358Z,97733.38
2022-08-25T16:47:02.341Z,97723.00
2022-08-25T16:49:34.936Z,97723.84
2022-08-25T16:52:28.302Z,97723.00
2022-08-25T16:55:11.474Z,97722.38
2022-08-25T16:57:45.426Z,97725.41
2022-08-25T17:00:22.006Z,97716.94
2022-08-25T17:02:54.329Z,97715.19
2022-08-25T17:05:27.308Z,97720.06
2022-08-25T17:08:11.043Z,97720.19
2022-08-25T17:10:44.883Z,97716.22
2022-08-25T17:13:16.237Z,97722.28
2022-08-25T17:15:52.306Z,97714.91
2022-08-25T17:18:22.694Z,97714.25
2022-08-25T17:21:02.453Z,97713.69
2022-08-25T17:23:35.070Z,97711.91
2022-08-25T17:26:13.018Z,97707.53
2022-08-25T17:28:46.414Z,97707.16
2022-08-25T17:31:18.442Z,97713.56
2022-08-25T17:33:49.841Z,97709.28
2022-08-25T17:36:27.137Z,97717.69
2022-08-25T17:38:57.961Z,97717.59
2022-08-25T17:41:28.169Z,97716.00
2022-08-25T17:43:58.760Z,97714.03
2022-08-25T17:46:28.890Z,97716.81
2022-08-25T17:48:58.955Z,97713.28
2022-08-25T17:51:31.893Z,97716.88
2022-08-25T17:54:02.229Z,97716.69
2022-08-25T17:56:33.501Z,97717.06
2022-08-25T17:59:03.516Z,97720.03
2022-08-25T18:01:40.643Z,97716.38
2022-08-25T18:04:17.649Z,97715.09
2022-08-25T18:06:51.813Z,97715.69
2022-08-25T18:09:21.866Z,97709.94
2022-08-25T18:11:52.489Z,97727.56
2022-08-25T18:14:25.567Z,97728.66
2022-08-25T18:16:57.019Z,97726.88
2022-08-25T18:19:27.062Z,97731.84
2022-08-25T18:22:04.288Z,97731.69
2022-08-25T18:24:35.501Z,97728.00
2022-08-25T18:27:05.674Z,97732.00
2022-08-25T18:29:36.548Z,97731.88
2022-08-25T18:32:07.781Z,97738.16
2022-08-25T18:34:39.081Z,97731.69
2022-08-25T18:37:25.527Z,97736.53
2022-08-25T18:40:08.092Z,97738.34
2022-08-25T18:42:38.711Z,97738.03
2022-08-25T18:45:12.302Z,97739.16
2022-08-25T18:47:42.685Z,97743.00
2022-08-25T18:50:12.929Z,97747.44
2022-08-25T18:52:45.956Z,97746.25
2022-08-25T18:55:16.454Z,97732.34
2022-08-25T18:57:46.784Z,97744.88
2022-08-25T19:00:20.876Z,97741.38
2022-08-25T19:02:55.187Z,97745.41
2022-08-25T19:05:32.660Z,97753.84
2022-08-25T19:08:09.805Z,97752.22
2022-08-25T19:10:41.647Z,97743.53
2022-08-25T19:13:12.334Z,97744.22
2022-08-25T19:15:44.556Z,97753.84
2022-08-25T19:18:16.101Z,97749.06
2022-08-25T19:20:47.732Z,97747.91
2022-08-25T19:23:20.503Z,97745.38
2022-08-25T19:25:50.803Z,97755.34
2022-08-25T19:28:21.585Z,97754.16
2022-08-25T19:30:51.669Z,97756.66
2022-08-25T19:33:42.081Z,97754.94
2022-08-25T19:36:12.818Z,97751.91
2022-08-25T19:38:46.447Z,97757.66
2022-08-25T19:41:16.813Z,97754.31
2022-08-25T19:43:56.684Z,97760.38
2022-08-25T19:46:32.897Z,97763.53
2022-08-25T19:49:07.742Z,97767.75
2022-08-25T19:51:40.265Z,97763.72
2022-08-25T19:54:15.617Z,97763.75
2022-08-25T19:56:54.855Z,97767.13
2022-08-25T19:59:34.312Z,97763.78
2022-08-25T20:02:15.920Z,97767.19
2022-08-25T20:04:49.730Z,97764.31
2022-08-25T20:07:22.920Z,97756.09
2022-08-25T20:09:58.957Z,97765.78
2022-08-25T20:12:30.818Z,97770.81
2022-08-25T20:15:00.990Z,97763.13
2022-08-25T20:17:31.295Z,97778.16
2022-08-25T20:20:07.098Z,97781.28
2022-08-25T20:22:40.017Z,97774.50
2022-08-25T20:25:15.274Z,97779.16
2022-08-25T20:27:51.131Z,97781.28
2022-08-25T20:30:24.802Z,97783.13
2022-08-25T20:32:56.947Z,97777.97
2022-08-25T20:35:29.231Z,97777.75
2022-08-25T20:38:01.075Z,97787.66
2022-08-25T20:40:34.104Z,97791.25
2022-08-25T20:43:04.793Z,97789.22
2022-08-25T20:45:40.630Z,97784.03
2022-08-25T20:48:10.708Z,97775.25
2022-08-25T20:50:42.061Z,97786.16
2022-08-25T20:53:13.645Z,97784.09
2022-08-25T20:55:47.415Z,97791.63
2022-08-25T20:58:17.458Z,97797.06
2022-08-25T21:00:49.011Z,97803.53
2022-08-25T21:03:19.098Z,97794.97
2022-08-25T21:05:53.929Z,97796.78
2022-08-25T21:08:25.536Z,97796.53
2022-08-25T21:10:58.165Z,97794.97
2022-08-25T21:13:28.384Z,97799.09
2022-08-25T21:16:05.609Z,97802.50
2022-08-25T21:18:36.157Z,97803.00
2022-08-25T21:21:12.367Z,97802.72
2022-08-25T21:23:44.030Z,97804.56
2022-08-25T21:26:21.109Z,97802.47
2022-08-25T21:28:51.369Z,97805.84
2022-08-25T21:31:23.677Z,97815.94
2022-08-25T21:33:56.140Z,97807.13
2022-08-25T21:36:29.064Z,97808.69
2022-08-25T21:39:01.846Z,97806.34
2022-08-25T21:41:37.742Z,97809.44
2022-08-25T21:44:08.075Z,97807.13
2022-08-25T21:46:39.243Z,97813.06
2022-08-25T21:49:11.455Z,97814.06
2022-08-25T21:51:47.442Z,97807.88
2022-08-25T21:54:20.759Z,97808.91
2022-08-25T21:56:59.850Z,97811.22
2022-08-25T21:59:34.851Z,97810.94
2022-08-25T22:02:08.932Z,97811.41
2022-08-25T22:04:40.049Z,97814.50
2022-08-25T22:07:11.296Z,97813.44
2022-08-25T22:09:42.023Z,97817.03
2022-08-25T22:12:15.535Z,97809.25
2022-08-25T22:14:45.666Z,97806.19
2022-08-25T22:17:16.822Z,97814.44
2022-08-25T22:19:48.202Z,97817.00
2022-08-25T22:22:25.159Z,97807.44
2022-08-25T22:24:55.987Z,97802.97
2022-08-25T22:27:29.274Z,97809.69
2022-08-25T22:29:59.497Z,97799.59
2022-08-25T22:32:30.465Z,97796.19
2022-08-25T22:35:00.429Z,97798.72
2022-08-25T22:37:30.615Z,97798.72
2022-08-25T22:40:00.742Z,97800.53
2022-08-25T22:42:34.273Z,97800.25
2022-08-25T22:45:04.286Z,97799.22
2022-08-25T22:47:34.464Z,97789.72
2022-08-25T22:50:05.110Z,97792.53
2022-08-25T22:52:36.251Z,97782.44
2022-08-25T22:55:08.343Z,97788.34
2022-08-25T22:57:44.880Z,97785.72
2022-08-25T23:00:18.159Z,97785.44
2022-08-25T23:02:53.214Z,97789.53
2022-08-25T23:05:23.980Z,97787.97
2022-08-25T23:07:54.025Z,97779.44
2022-08-25T23:10:25.645Z,97783.56
2022-08-25T23:12:58.299Z,97778.41
2022-08-25T23:15:29.092Z,97779.13
2022-08-25T23:17:59.330Z,97774.97
2022-08-25T23:20:44.971Z,97770.31
2022-08-25T23:23:16.514Z,97771.03
2022-08-25T23:25:46.574Z,97774.19
2022-08-25T23:28:19.479Z,97773.72
2022-08-25T23:30:57.295Z,97766.94
2022-08-25T23:33:30.096Z,97770.31
2022-08-25T23:36:02.606Z,97764.06
2022-08-25T23:38:32.944Z,97767.94
2022-08-25T23:41:03.522Z,97767.69
2022-08-25T23:43:36.856Z,97758.91
2022-08-25T23:46:08.509Z,97766.94
2022-08-25T23:48:39.560Z,97769.50
2022-08-25T23:51:10.182Z,97762.00
2022-08-25T23:53:40.523Z,97767.88
2022-08-25T23:56:10.518Z,97765.06
2022-08-25T23:58:43.443Z,97766.09
